RJTA(METAR)
06/27 00:00
METAR RJTA 261500Z 19010KT 9999 FEW030 BKN230 24/18 Q1012 RMK 1CU030
A2990=
戻る
トップページへ戻る
IMOC Co,.Ltd.